Terminal Aerodrome Forecast
Issued by NWS Cleveland, OH

Home | Current Version | Previous Version | Graphics & Text | Print | Product List | Glossary On
Versions: 1 2 3 4 5 6 7 8 9 10 11 12 13 14
000
FTUS41 KCLE 262328
TAFERI
TAF
KERI 262328Z 2700/2724 20006KT P6SM SCT060 BKN200
     FM271000 19005KT 6SM BR SCT080 BKN200
     FM271600 27008KT P6SM BKN050=

USA.gov is the U.S. government's official web portal to all federal, state and local government web resources and services.